Time;durP1;ratioP1;P1;durP2;ratioP2;P2;SDS_P1;SDS_P2;PMS_P1;PMS_P2;Temp;Humidity;BMP_temperature;BMP_pressure;BME280_temperature;BME280_humidity;BME280_pressure;Samples;Min_cycle;Max_cycle;Signal;HPM_P1;HPM_P2
2022/09/19 00:00:55;;;;;;;;;;;19.10;56.10;;;;;;5010202;28;19933;-71
2022/09/19 00:03:21;;;;;;;;;;;19.00;56.00;;;;;;5012141;28;20328;-73
2022/09/19 00:05:46;;;;;;;;;;;19.00;56.00;;;;;;4996114;28;19917;-73
2022/09/19 00:08:12;;;;;;;;;;;19.00;56.10;;;;;;5013469;28;20040;-71
2022/09/19 00:10:38;;;;;;;;;;;19.00;56.00;;;;;;4993377;28;19984;-71
2022/09/19 00:13:06;;;;;;;;;;;19.00;56.00;;;;;;5010246;28;19921;-73
2022/09/19 00:15:33;;;;;;;;;;;19.00;55.80;;;;;;5014406;28;20368;-72
2022/09/19 00:17:58;;;;;;;;;;;19.00;55.90;;;;;;5010255;28;19914;-72
2022/09/19 00:20:24;;;;;;;;;;;19.00;55.80;;;;;;5008847;28;19959;-72
2022/09/19 00:25:33;;;;;;;;;;;18.90;55.80;;;;;;5011367;28;19968;-72
2022/09/19 00:27:59;;;;;;;;;;;18.90;55.70;;;;;;5013256;28;20324;-71
2022/09/19 00:30:24;;;;;;;;;;;18.90;55.70;;;;;;5013532;28;20440;-72
2022/09/19 00:32:50;;;;;;;;;;;18.90;55.70;;;;;;5013507;28;19920;-72
2022/09/19 00:35:15;;;;;;;;;;;18.90;55.70;;;;;;4996745;28;20361;-71
2022/09/19 00:37:41;;;;;;;;;;;18.90;55.70;;;;;;5007398;28;19913;-72
2022/09/19 00:40:07;;;;;;;;;;;18.80;55.70;;;;;;5014257;28;19922;-73
2022/09/19 00:42:34;;;;;;;;;;;18.80;55.60;;;;;;5008045;28;19917;-71
2022/09/19 00:45:01;;;;;;;;;;;18.80;55.70;;;;;;5013306;28;20368;-72
2022/09/19 00:47:29;;;;;;;;;;;18.80;55.70;;;;;;5020235;28;19983;-72
2022/09/19 00:49:56;;;;;;;;;;;18.80;55.80;;;;;;5013420;28;19917;-71
2022/09/19 00:52:27;;;;;;;;;;;18.80;55.60;;;;;;4979445;28;20363;-72
2022/09/19 00:54:53;;;;;;;;;;;18.80;55.60;;;;;;5013054;28;19914;-72
2022/09/19 00:57:19;;;;;;;;;;;18.80;55.60;;;;;;5018635;28;19920;-71
2022/09/19 00:59:46;;;;;;;;;;;18.80;55.60;;;;;;5005134;28;19913;-72
2022/09/19 01:02:11;;;;;;;;;;;18.80;55.50;;;;;;5013312;28;19917;-71
2022/09/19 01:04:38;;;;;;;;;;;18.80;55.60;;;;;;5011180;28;19929;-72
2022/09/19 01:07:18;;;;;;;;;;;18.80;55.60;;;;;;4995227;28;19914;-71
2022/09/19 01:09:48;;;;;;;;;;;18.80;55.50;;;;;;5007969;28;19926;-71
2022/09/19 01:12:15;;;;;;;;;;;18.80;55.40;;;;;;5013552;28;19957;-71
2022/09/19 01:14:51;;;;;;;;;;;18.80;55.40;;;;;;5012429;28;19924;-71
2022/09/19 01:17:19;;;;;;;;;;;18.80;55.40;;;;;;5012645;28;19917;-72
2022/09/19 01:19:44;;;;;;;;;;;18.80;55.30;;;;;;5011745;28;19914;-72
2022/09/19 01:22:27;;;;;;;;;;;18.80;55.40;;;;;;5011656;28;19918;-70
2022/09/19 01:24:58;;;;;;;;;;;18.70;55.40;;;;;;5015748;28;20281;-71
2022/09/19 01:27:44;;;;;;;;;;;18.70;55.40;;;;;;5014136;28;19914;-71
2022/09/19 01:30:10;;;;;;;;;;;18.70;55.40;;;;;;5012720;28;19921;-71
2022/09/19 01:32:37;;;;;;;;;;;18.80;55.40;;;;;;5009163;28;19910;-72
2022/09/19 01:35:03;;;;;;;;;;;18.80;55.40;;;;;;5013572;28;19925;-71
2022/09/19 01:37:36;;;;;;;;;;;18.80;55.20;;;;;;5011869;28;19992;-71
2022/09/19 01:40:02;;;;;;;;;;;18.80;55.20;;;;;;5011788;28;20004;-70
2022/09/19 01:42:28;;;;;;;;;;;18.80;55.20;;;;;;5007012;28;19937;-71
2022/09/19 01:44:53;;;;;;;;;;;18.80;55.20;;;;;;5011726;28;19914;-71
2022/09/19 01:47:38;;;;;;;;;;;18.80;55.20;;;;;;5011081;28;20403;-71
2022/09/19 01:50:31;;;;;;;;;;;18.80;55.10;;;;;;5009806;28;19917;-71
2022/09/19 01:53:15;;;;;;;;;;;18.80;55.10;;;;;;4993460;28;20393;-71
2022/09/19 01:55:41;;;;;;;;;;;18.80;55.10;;;;;;5011623;28;19917;-71
2022/09/19 01:58:06;;;;;;;;;;;18.80;55.10;;;;;;5007267;28;19917;-72
2022/09/19 02:00:32;;;;;;;;;;;18.70;55.10;;;;;;5010469;28;19929;-72
2022/09/19 02:03:01;;;;;;;;;;;18.70;55.10;;;;;;5010100;28;20005;-71
2022/09/19 02:05:35;;;;;;;;;;;18.70;55.10;;;;;;5011802;28;19928;-71
2022/09/19 02:08:03;;;;;;;;;;;18.70;55.20;;;;;;4996988;28;20416;-71
2022/09/19 02:10:49;;;;;;;;;;;18.70;55.20;;;;;;5011972;28;20408;-71
2022/09/19 02:13:15;;;;;;;;;;;18.70;55.30;;;;;;5008450;28;19924;-72
2022/09/19 02:15:41;;;;;;;;;;;18.60;55.20;;;;;;5011360;28;19918;-71
2022/09/19 02:18:29;;;;;;;;;;;18.60;55.30;;;;;;5011515;28;19917;-70
2022/09/19 02:20:57;;;;;;;;;;;18.60;55.30;;;;;;4993986;28;19952;-72
2022/09/19 02:23:30;;;;;;;;;;;18.70;55.30;;;;;;5010825;28;19913;-71
2022/09/19 02:25:56;;;;;;;;;;;18.70;55.20;;;;;;5007598;28;19913;-71
2022/09/19 02:28:22;;;;;;;;;;;18.70;55.10;;;;;;5009112;28;19914;-71
2022/09/19 02:30:48;;;;;;;;;;;18.70;55.10;;;;;;5006765;28;19921;-71
2022/09/19 02:33:13;;;;;;;;;;;18.70;55.00;;;;;;5011751;28;19913;-72
2022/09/19 02:35:46;;;;;;;;;;;18.70;55.00;;;;;;5010732;28;19918;-71
2022/09/19 02:38:14;;;;;;;;;;;18.70;55.10;;;;;;5011423;28;20325;-71
2022/09/19 02:40:44;;;;;;;;;;;18.70;55.20;;;;;;5011005;28;19921;-71
2022/09/19 02:43:20;;;;;;;;;;;18.60;55.20;;;;;;5007569;28;19917;-71
2022/09/19 02:45:50;;;;;;;;;;;18.50;55.30;;;;;;5007126;28;20404;-72
2022/09/19 02:48:18;;;;;;;;;;;18.50;55.50;;;;;;5009314;28;19917;-73
2022/09/19 02:50:54;;;;;;;;;;;18.50;55.50;;;;;;5009347;28;19917;-71
2022/09/19 02:53:21;;;;;;;;;;;18.50;55.40;;;;;;5011515;28;19925;-71
2022/09/19 02:55:49;;;;;;;;;;;18.50;56.00;;;;;;5004442;28;20011;-71
2022/09/19 02:58:15;;;;;;;;;;;18.50;55.40;;;;;;5011155;28;19913;-71
2022/09/19 03:00:42;;;;;;;;;;;18.50;55.40;;;;;;5008135;28;19917;-71
2022/09/19 03:05:56;;;;;;;;;;;18.50;55.30;;;;;;5009747;28;19925;-71
2022/09/19 03:08:24;;;;;;;;;;;18.50;55.30;;;;;;5008953;28;19917;-71
2022/09/19 03:10:51;;;;;;;;;;;18.50;55.30;;;;;;4994413;28;22271;-72
2022/09/19 03:13:24;;;;;;;;;;;18.50;55.10;;;;;;5013517;28;19917;-71
2022/09/19 03:15:58;;;;;;;;;;;18.60;55.10;;;;;;5022339;28;19916;-71
2022/09/19 03:18:24;;;;;;;;;;;18.50;55.10;;;;;;5009018;28;19913;-72
2022/09/19 03:20:53;;;;;;;;;;;18.50;55.10;;;;;;5014060;28;19924;-70
2022/09/19 03:23:23;;;;;;;;;;;18.50;55.00;;;;;;5013761;28;19961;-72
2022/09/19 03:25:49;;;;;;;;;;;18.60;55.00;;;;;;5013953;28;19909;-72
2022/09/19 03:28:19;;;;;;;;;;;18.50;54.90;;;;;;5013439;28;19917;-72
2022/09/19 03:30:45;;;;;;;;;;;18.50;54.90;;;;;;5009927;28;19953;-72
2022/09/19 03:33:11;;;;;;;;;;;18.60;55.00;;;;;;5004628;28;20400;-71
2022/09/19 03:35:38;;;;;;;;;;;18.50;54.90;;;;;;5012287;28;19918;-71
2022/09/19 03:38:03;;;;;;;;;;;18.50;55.00;;;;;;5015471;28;19917;-71
2022/09/19 03:40:29;;;;;;;;;;;18.50;55.10;;;;;;4998249;28;19909;-71
2022/09/19 03:42:55;;;;;;;;;;;18.50;55.10;;;;;;5014010;28;19913;-71
2022/09/19 03:45:21;;;;;;;;;;;18.50;55.20;;;;;;4996567;28;20382;-71
2022/09/19 03:47:47;;;;;;;;;;;18.40;55.10;;;;;;5013763;28;20309;-71
2022/09/19 03:50:12;;;;;;;;;;;18.50;55.10;;;;;;5010672;28;19965;-71
2022/09/19 03:52:37;;;;;;;;;;;18.40;55.00;;;;;;5012462;28;19920;-71
2022/09/19 03:55:03;;;;;;;;;;;18.50;55.10;;;;;;5015048;28;20404;-71
2022/09/19 03:57:29;;;;;;;;;;;18.50;55.00;;;;;;5012928;28;19949;-71
2022/09/19 03:59:54;;;;;;;;;;;18.40;55.00;;;;;;5012604;28;19914;-71
2022/09/19 04:02:19;;;;;;;;;;;18.40;55.00;;;;;;4989972;28;19918;-71
2022/09/19 04:04:45;;;;;;;;;;;18.40;55.10;;;;;;5010875;28;19925;-71
2022/09/19 04:07:11;;;;;;;;;;;18.40;55.10;;;;;;5012484;28;20373;-71
2022/09/19 04:09:36;;;;;;;;;;;18.40;55.10;;;;;;5013014;28;19921;-71
2022/09/19 04:12:03;;;;;;;;;;;18.30;55.00;;;;;;5014014;28;19913;-71
2022/09/19 04:14:29;;;;;;;;;;;18.40;55.10;;;;;;5012664;28;20273;-72
2022/09/19 04:16:55;;;;;;;;;;;18.40;55.10;;;;;;5014578;28;19948;-71
2022/09/19 04:19:20;;;;;;;;;;;18.40;55.10;;;;;;4995853;28;19910;-72
2022/09/19 04:21:46;;;;;;;;;;;18.30;55.00;;;;;;5008471;28;19913;-71
2022/09/19 04:24:12;;;;;;;;;;;18.30;55.00;;;;;;5012348;28;19924;-71
2022/09/19 04:26:37;;;;;;;;;;;18.40;55.10;;;;;;5012226;28;19918;-71
2022/09/19 04:29:03;;;;;;;;;;;18.30;55.00;;;;;;5013434;28;19917;-71
2022/09/19 04:31:35;;;;;;;;;;;18.30;55.00;;;;;;5014144;28;20017;-72
2022/09/19 04:34:02;;;;;;;;;;;18.30;54.90;;;;;;5020120;28;19985;-71
2022/09/19 04:36:31;;;;;;;;;;;18.40;54.90;;;;;;5009250;28;19987;-72
2022/09/19 04:38:57;;;;;;;;;;;18.40;54.80;;;;;;5006826;28;19936;-71
2022/09/19 04:41:22;;;;;;;;;;;18.40;54.80;;;;;;4997911;28;19917;-71
2022/09/19 04:43:50;;;;;;;;;;;18.50;54.70;;;;;;5011360;28;19910;-72
2022/09/19 04:46:20;;;;;;;;;;;18.50;54.50;;;;;;5011236;28;19913;-71
2022/09/19 04:48:46;;;;;;;;;;;18.60;54.50;;;;;;5014846;28;19910;-71
2022/09/19 04:51:12;;;;;;;;;;;18.60;54.50;;;;;;5009605;28;19920;-71
2022/09/19 04:53:38;;;;;;;;;;;18.60;54.50;;;;;;5008925;28;19913;-71
2022/09/19 04:56:04;;;;;;;;;;;18.60;54.40;;;;;;5013754;28;20358;-70
2022/09/19 04:58:29;;;;;;;;;;;18.60;54.20;;;;;;5011531;28;19913;-72
2022/09/19 05:00:55;;;;;;;;;;;18.60;54.20;;;;;;5009149;28;19948;-71
2022/09/19 05:03:23;;;;;;;;;;;18.60;54.20;;;;;;5019141;28;19926;-71
2022/09/19 05:05:52;;;;;;;;;;;18.70;54.40;;;;;;5011509;28;19917;-72
2022/09/19 05:08:19;;;;;;;;;;;18.70;54.30;;;;;;5009717;28;19956;-72
2022/09/19 05:10:45;;;;;;;;;;;18.60;54.30;;;;;;5007712;28;20012;-71
2022/09/19 05:13:11;;;;;;;;;;;18.60;54.40;;;;;;4995087;28;19956;-70
2022/09/19 05:15:38;;;;;;;;;;;18.60;54.40;;;;;;5008512;28;19917;-72
2022/09/19 05:18:04;;;;;;;;;;;18.60;54.50;;;;;;5013461;28;19953;-70
2022/09/19 05:20:29;;;;;;;;;;;18.60;54.40;;;;;;5006039;28;19983;-72
2022/09/19 05:22:58;;;;;;;;;;;18.60;54.40;;;;;;5012489;28;19988;-71
2022/09/19 05:25:28;;;;;;;;;;;18.70;54.50;;;;;;5014038;28;19920;-72
2022/09/19 05:27:54;;;;;;;;;;;18.70;54.50;;;;;;5012353;28;19921;-72
2022/09/19 05:30:22;;;;;;;;;;;18.70;54.50;;;;;;5006148;28;19925;-71
2022/09/19 05:32:48;;;;;;;;;;;18.70;54.50;;;;;;4994545;28;19921;-71
2022/09/19 05:35:14;;;;;;;;;;;18.60;54.50;;;;;;5013285;28;19916;-71
2022/09/19 05:37:40;;;;;;;;;;;18.60;54.70;;;;;;5011839;28;20012;-71
2022/09/19 05:40:06;;;;;;;;;;;18.60;54.80;;;;;;5013345;28;20437;-71
2022/09/19 05:42:31;;;;;;;;;;;18.60;55.70;;;;;;5009908;28;19920;-70
2022/09/19 05:44:57;;;;;;;;;;;18.50;55.20;;;;;;4995575;28;20004;-72
2022/09/19 05:47:22;;;;;;;;;;;18.50;55.40;;;;;;5007005;28;19948;-72
2022/09/19 05:49:48;;;;;;;;;;;18.40;55.50;;;;;;5010579;28;19918;-71
2022/09/19 05:54:57;;;;;;;;;;;18.50;55.50;;;;;;5012121;28;20260;-71
2022/09/19 05:57:23;;;;;;;;;;;18.50;55.50;;;;;;5011161;28;19918;-71
2022/09/19 05:59:48;;;;;;;;;;;18.50;55.70;;;;;;5012666;28;19941;-70
2022/09/19 06:02:14;;;;;;;;;;;18.50;55.80;;;;;;5006628;28;19913;-71
2022/09/19 06:04:39;;;;;;;;;;;18.50;55.60;;;;;;5010810;28;19940;-71
2022/09/19 06:07:04;;;;;;;;;;;18.50;55.60;;;;;;5011991;28;19928;-71
2022/09/19 06:09:30;;;;;;;;;;;18.60;55.50;;;;;;5012713;28;19920;-71
2022/09/19 06:11:55;;;;;;;;;;;18.60;55.50;;;;;;5011045;28;19963;-71
2022/09/19 06:14:23;;;;;;;;;;;18.60;55.40;;;;;;5012089;28;19913;-71
2022/09/19 06:16:49;;;;;;;;;;;18.60;55.30;;;;;;5011561;28;20350;-71
2022/09/19 06:19:14;;;;;;;;;;;18.70;55.40;;;;;;5006506;28;19924;-72
2022/09/19 06:21:40;;;;;;;;;;;18.60;55.40;;;;;;5010002;28;19920;-70
2022/09/19 06:24:07;;;;;;;;;;;18.60;55.40;;;;;;5013114;28;19937;-71
2022/09/19 06:26:33;;;;;;;;;;;18.70;55.40;;;;;;5006165;28;19913;-71
2022/09/19 06:29:01;;;;;;;;;;;18.70;55.40;;;;;;5012457;28;19913;-71
2022/09/19 06:31:27;;;;;;;;;;;18.60;55.40;;;;;;5011766;28;19920;-70
2022/09/19 06:33:53;;;;;;;;;;;18.70;55.40;;;;;;5006375;28;19935;-71
2022/09/19 06:36:18;;;;;;;;;;;18.70;55.40;;;;;;5011417;28;19935;-71
2022/09/19 06:38:44;;;;;;;;;;;18.70;55.40;;;;;;5012395;28;19916;-71
2022/09/19 06:41:09;;;;;;;;;;;18.70;55.40;;;;;;5011901;28;19917;-71
2022/09/19 06:43:35;;;;;;;;;;;18.70;55.50;;;;;;5012233;28;19914;-71
2022/09/19 06:46:00;;;;;;;;;;;18.70;55.60;;;;;;5009551;28;19914;-71
2022/09/19 06:48:26;;;;;;;;;;;18.60;55.70;;;;;;5011363;28;20329;-72
2022/09/19 06:50:52;;;;;;;;;;;18.60;55.80;;;;;;4988808;28;20666;-71
2022/09/19 06:53:17;;;;;;;;;;;18.60;55.90;;;;;;5006951;28;20384;-70
2022/09/19 06:55:43;;;;;;;;;;;18.60;55.80;;;;;;5002616;28;19917;-71
2022/09/19 06:58:08;;;;;;;;;;;18.60;55.80;;;;;;4990155;28;20015;-70
2022/09/19 07:00:35;;;;;;;;;;;18.60;55.80;;;;;;5010134;28;19969;-70
2022/09/19 07:03:02;;;;;;;;;;;18.60;55.80;;;;;;5011849;28;19920;-71
2022/09/19 07:05:29;;;;;;;;;;;18.60;55.80;;;;;;5003803;28;19989;-72
2022/09/19 07:07:54;;;;;;;;;;;18.60;55.90;;;;;;5008226;28;19917;-72
2022/09/19 07:10:20;;;;;;;;;;;18.60;56.00;;;;;;5007629;28;20004;-71
2022/09/19 07:12:52;;;;;;;;;;;18.60;56.00;;;;;;4993614;28;19953;-71
2022/09/19 07:15:18;;;;;;;;;;;18.70;56.10;;;;;;5008828;28;19917;-71
2022/09/19 07:17:43;;;;;;;;;;;18.80;56.20;;;;;;5013418;28;19975;-71
2022/09/19 07:20:08;;;;;;;;;;;19.00;56.00;;;;;;5008855;28;20300;-72
2022/09/19 07:22:35;;;;;;;;;;;19.20;55.40;;;;;;5011759;28;20440;-72
2022/09/19 07:25:00;;;;;;;;;;;19.40;55.00;;;;;;5008989;28;19961;-72
2022/09/19 07:27:26;;;;;;;;;;;19.50;54.70;;;;;;5011076;28;19965;-71
2022/09/19 07:29:51;;;;;;;;;;;19.60;54.70;;;;;;5010487;28;20297;-71
2022/09/19 07:32:17;;;;;;;;;;;19.50;54.60;;;;;;4992161;28;19918;-71
2022/09/19 07:34:43;;;;;;;;;;;19.60;54.70;;;;;;5011874;28;19909;-72
2022/09/19 07:37:08;;;;;;;;;;;19.70;54.70;;;;;;5009405;28;19921;-71
2022/09/19 07:39:34;;;;;;;;;;;19.70;54.70;;;;;;5008313;28;19918;-72
2022/09/19 07:41:59;;;;;;;;;;;19.70;54.70;;;;;;5006320;28;20011;-71
2022/09/19 07:44:25;;;;;;;;;;;19.80;54.80;;;;;;4996240;28;19918;-71
2022/09/19 07:49:34;;;;;;;;;;;20.00;54.20;;;;;;5005336;28;19924;-72
2022/09/19 07:52:00;;;;;;;;;;;20.10;54.20;;;;;;5010449;28;19913;-73
2022/09/19 07:54:25;;;;;;;;;;;20.10;54.10;;;;;;5009408;28;19925;-72
2022/09/19 07:56:51;;;;;;;;;;;20.10;54.10;;;;;;5010369;28;19920;-70
2022/09/19 07:59:17;;;;;;;;;;;20.20;54.10;;;;;;4998111;28;20571;-72
2022/09/19 08:01:42;;;;;;;;;;;20.30;53.90;;;;;;5014354;28;20420;-71
2022/09/19 08:04:08;;;;;;;;;;;20.40;53.70;;;;;;5009980;28;19925;-72
2022/09/19 08:06:33;;;;;;;;;;;20.50;53.50;;;;;;5009652;28;20008;-72
2022/09/19 08:08:59;;;;;;;;;;;20.70;53.30;;;;;;5010501;28;20283;-72
2022/09/19 08:11:25;;;;;;;;;;;20.80;53.20;;;;;;5011825;28;19917;-71
2022/09/19 08:13:51;;;;;;;;;;;20.80;52.90;;;;;;5013110;28;19920;-71
2022/09/19 08:16:17;;;;;;;;;;;20.90;52.70;;;;;;5013003;28;20000;-74
2022/09/19 08:18:42;;;;;;;;;;;21.00;52.60;;;;;;5014187;28;19932;-71
2022/09/19 08:21:08;;;;;;;;;;;21.00;52.50;;;;;;4991298;28;19961;-71
2022/09/19 08:23:33;;;;;;;;;;;21.10;52.40;;;;;;5008605;28;20467;-71
2022/09/19 08:26:01;;;;;;;;;;;21.20;52.40;;;;;;5014041;28;20335;-71
2022/09/19 08:28:30;;;;;;;;;;;21.20;52.30;;;;;;5013994;28;19937;-72
2022/09/19 08:30:59;;;;;;;;;;;21.30;52.20;;;;;;5010750;28;19921;-73
2022/09/19 08:33:25;;;;;;;;;;;21.40;52.10;;;;;;5011427;28;20415;-71
2022/09/19 08:35:51;;;;;;;;;;;21.50;52.00;;;;;;5011978;28;19948;-71
2022/09/19 08:38:17;;;;;;;;;;;21.50;51.80;;;;;;5011081;28;19909;-71
2022/09/19 08:40:46;;;;;;;;;;;21.60;51.80;;;;;;5012292;28;20284;-72
2022/09/19 08:43:11;;;;;;;;;;;21.50;51.70;;;;;;5018261;28;19925;-71
2022/09/19 08:45:55;;;;;;;;;;;21.40;51.90;;;;;;5013528;28;19913;-74
2022/09/19 08:48:24;;;;;;;;;;;21.40;52.10;;;;;;5012735;28;19913;-73
2022/09/19 08:50:55;;;;;;;;;;;21.40;52.30;;;;;;5008979;28;19988;-73
2022/09/19 08:53:23;;;;;;;;;;;21.40;52.40;;;;;;5015198;28;19921;-72
2022/09/19 08:55:49;;;;;;;;;;;21.30;52.50;;;;;;4993914;28;19917;-73
2022/09/19 08:58:17;;;;;;;;;;;21.30;52.70;;;;;;5006864;28;20382;-73
2022/09/19 09:00:42;;;;;;;;;;;21.30;52.80;;;;;;5009100;28;20353;-72
2022/09/19 09:03:18;;;;;;;;;;;21.30;52.80;;;;;;5012204;28;19910;-72
2022/09/19 09:05:47;;;;;;;;;;;21.30;52.80;;;;;;5006462;28;19925;-73
2022/09/19 09:08:31;;;;;;;;;;;21.30;52.80;;;;;;5011683;28;19916;-72
2022/09/19 09:11:07;;;;;;;;;;;21.30;52.60;;;;;;5012713;28;19917;-72
2022/09/19 09:13:42;;;;;;;;;;;21.40;52.80;;;;;;4995506;28;19913;-72
2022/09/19 09:16:11;;;;;;;;;;;21.40;52.70;;;;;;5011610;28;19910;-71
2022/09/19 09:18:56;;;;;;;;;;;21.40;52.80;;;;;;5008969;28;19917;-72
2022/09/19 09:21:31;;;;;;;;;;;21.40;52.80;;;;;;5010491;28;19993;-72
2022/09/19 09:24:01;;;;;;;;;;;21.40;52.80;;;;;;4989755;28;19921;-72
2022/09/19 09:26:27;;;;;;;;;;;21.30;53.00;;;;;;5012160;28;20316;-73
2022/09/19 09:29:25;;;;;;;;;;;21.20;53.20;;;;;;5009132;28;19964;-72
2022/09/19 09:32:03;;;;;;;;;;;21.10;53.50;;;;;;4984639;28;19913;-72
2022/09/19 09:34:52;;;;;;;;;;;21.10;53.50;;;;;;5006913;28;19909;-71
2022/09/19 09:37:23;;;;;;;;;;;21.20;53.60;;;;;;4995420;28;19917;-72
2022/09/19 09:40:12;;;;;;;;;;;21.30;53.50;;;;;;5019971;28;19958;-73
2022/09/19 09:42:41;;;;;;;;;;;21.30;53.20;;;;;;4996971;28;19914;-73
2022/09/19 09:45:14;;;;;;;;;;;21.40;53.20;;;;;;5001445;28;19913;-73
2022/09/19 09:47:48;;;;;;;;;;;21.40;53.20;;;;;;5013093;28;19913;-72
2022/09/19 09:50:20;;;;;;;;;;;21.40;53.30;;;;;;5002313;28;20317;-72
2022/09/19 09:52:54;;;;;;;;;;;21.30;53.30;;;;;;5007600;28;20023;-74
2022/09/19 09:58:33;;;;;;;;;;;21.40;53.50;;;;;;5004126;28;19928;-71
2022/09/19 10:03:57;;;;;;;;;;;21.50;53.40;;;;;;5008541;28;19987;-73
2022/09/19 10:06:35;;;;;;;;;;;21.60;53.40;;;;;;5010875;28;19913;-72
2022/09/19 10:09:03;;;;;;;;;;;21.60;53.20;;;;;;5009785;28;21900;-72
2022/09/19 10:11:45;;;;;;;;;;;21.70;53.20;;;;;;5011580;28;19918;-73
2022/09/19 10:14:22;;;;;;;;;;;21.80;53.00;;;;;;5012038;28;20273;-73
2022/09/19 10:16:48;;;;;;;;;;;21.80;52.90;;;;;;5011345;28;20323;-71
2022/09/19 10:19:30;;;;;;;;;;;21.90;52.90;;;;;;5013936;28;19921;-72
2022/09/19 10:21:56;;;;;;;;;;;21.90;52.80;;;;;;4999558;28;19914;-73
2022/09/19 10:24:40;;;;;;;;;;;22.00;52.80;;;;;;5013372;28;20013;-72
2022/09/19 10:27:13;;;;;;;;;;;22.00;53.30;;;;;;5008176;28;19917;-72
2022/09/19 10:29:50;;;;;;;;;;;22.00;52.50;;;;;;5016377;28;19952;-73
2022/09/19 10:32:17;;;;;;;;;;;22.00;52.60;;;;;;5012498;28;19917;-72
2022/09/19 10:34:43;;;;;;;;;;;22.00;52.70;;;;;;5012909;28;19921;-71
2022/09/19 10:37:12;;;;;;;;;;;21.90;52.70;;;;;;4994732;28;20344;-72
2022/09/19 10:39:43;;;;;;;;;;;21.90;52.80;;;;;;5005590;28;19933;-72
2022/09/19 10:42:27;;;;;;;;;;;22.00;52.80;;;;;;5003787;28;19918;-73
2022/09/19 10:44:52;;;;;;;;;;;22.10;52.70;;;;;;5012893;28;19910;-74
2022/09/19 10:47:18;;;;;;;;;;;22.10;52.50;;;;;;5013944;28;19920;-72
2022/09/19 10:49:48;;;;;;;;;;;22.20;52.60;;;;;;5014332;28;19941;-73
2022/09/19 10:52:24;;;;;;;;;;;22.30;52.50;;;;;;5006541;28;19918;-73
2022/09/19 10:54:50;;;;;;;;;;;22.40;52.30;;;;;;5010541;28;19914;-73
2022/09/19 10:57:36;;;;;;;;;;;22.40;52.10;;;;;;5005004;28;19917;-73
2022/09/19 11:00:02;;;;;;;;;;;22.40;52.20;;;;;;5000884;28;19922;-72
2022/09/19 11:02:28;;;;;;;;;;;22.30;52.30;;;;;;5007075;28;19921;-72
2022/09/19 11:04:55;;;;;;;;;;;22.30;52.40;;;;;;5004580;28;19977;-72
2022/09/19 11:07:23;;;;;;;;;;;22.30;52.40;;;;;;5010068;28;20254;-73
2022/09/19 11:09:53;;;;;;;;;;;22.40;52.40;;;;;;5009933;28;19913;-72
2022/09/19 11:12:19;;;;;;;;;;;22.50;52.20;;;;;;5008611;28;20350;-72
2022/09/19 11:14:48;;;;;;;;;;;22.50;52.10;;;;;;5008286;28;19913;-73
2022/09/19 11:17:15;;;;;;;;;;;22.50;52.10;;;;;;5005968;28;20385;-73
2022/09/19 11:19:49;;;;;;;;;;;22.40;52.20;;;;;;5010708;28;19940;-72
2022/09/19 11:22:28;;;;;;;;;;;22.40;52.40;;;;;;5015268;28;20016;-73
2022/09/19 11:25:05;;;;;;;;;;;22.40;52.40;;;;;;5006699;28;20270;-72
2022/09/19 11:27:45;;;;;;;;;;;22.50;52.30;;;;;;5008856;28;20305;-72
2022/09/19 11:30:24;;;;;;;;;;;22.50;52.20;;;;;;5010013;28;19913;-72
2022/09/19 11:32:56;;;;;;;;;;;22.60;52.10;;;;;;5011340;28;20367;-72
2022/09/19 11:35:27;;;;;;;;;;;22.60;52.00;;;;;;5020250;28;19993;-72
2022/09/19 11:38:00;;;;;;;;;;;22.70;52.00;;;;;;5014358;28;19910;-71
2022/09/19 11:40:37;;;;;;;;;;;22.70;52.00;;;;;;5004572;28;20424;-72
2022/09/19 11:43:09;;;;;;;;;;;22.70;51.90;;;;;;5011187;28;19913;-73
2022/09/19 11:45:54;;;;;;;;;;;22.80;51.90;;;;;;5025655;28;19925;-72
2022/09/19 11:48:35;;;;;;;;;;;22.80;51.80;;;;;;5010722;28;19918;-71
2022/09/19 11:51:19;;;;;;;;;;;22.80;51.70;;;;;;5011870;28;19917;-72
2022/09/19 11:53:57;;;;;;;;;;;22.80;51.90;;;;;;5014353;28;20407;-72
2022/09/19 11:56:35;;;;;;;;;;;22.70;52.00;;;;;;5011404;28;20285;-72
2022/09/19 11:59:13;;;;;;;;;;;22.60;52.10;;;;;;5005479;28;19913;-72
2022/09/19 12:01:51;;;;;;;;;;;22.50;52.30;;;;;;5008253;28;20431;-72
2022/09/19 12:04:32;;;;;;;;;;;22.50;52.40;;;;;;5010912;28;19976;-71
2022/09/19 12:07:10;;;;;;;;;;;22.50;52.50;;;;;;5012436;28;19921;-72
2022/09/19 12:09:44;;;;;;;;;;;22.50;52.50;;;;;;5014497;28;19917;-72
2022/09/19 12:12:16;;;;;;;;;;;22.60;52.40;;;;;;5013011;28;19916;-72
2022/09/19 12:14:52;;;;;;;;;;;22.60;52.30;;;;;;5014252;28;19916;-72
2022/09/19 12:17:26;;;;;;;;;;;22.60;52.20;;;;;;5012836;28;19921;-73
2022/09/19 12:19:57;;;;;;;;;;;22.70;52.30;;;;;;5011550;28;19921;-72
2022/09/19 12:22:23;;;;;;;;;;;22.70;52.10;;;;;;5016530;28;19909;-73
2022/09/19 12:24:53;;;;;;;;;;;22.70;52.20;;;;;;5011046;28;20347;-73
2022/09/19 12:27:28;;;;;;;;;;;22.70;52.30;;;;;;5014411;28;19987;-72
2022/09/19 12:29:57;;;;;;;;;;;22.60;52.30;;;;;;5014029;28;20362;-72
2022/09/19 12:32:40;;;;;;;;;;;22.60;52.40;;;;;;5012569;28;20270;-72
2022/09/19 12:35:15;;;;;;;;;;;22.50;52.50;;;;;;5017676;28;19917;-73
2022/09/19 12:37:49;;;;;;;;;;;22.50;52.60;;;;;;4986564;28;19918;-73
2022/09/19 12:40:26;;;;;;;;;;;22.50;52.60;;;;;;5012585;28;20390;-72
2022/09/19 12:42:57;;;;;;;;;;;22.50;52.60;;;;;;5009450;28;20300;-74
2022/09/19 12:45:22;;;;;;;;;;;22.50;52.60;;;;;;5011026;28;19913;-72
2022/09/19 12:47:54;;;;;;;;;;;22.60;52.50;;;;;;5014148;28;19925;-73
2022/09/19 12:50:21;;;;;;;;;;;22.60;52.40;;;;;;5008987;28;19921;-71
2022/09/19 12:52:55;;;;;;;;;;;22.60;52.40;;;;;;5006599;28;19920;-73
2022/09/19 12:55:25;;;;;;;;;;;22.50;52.50;;;;;;5011147;28;20364;-72
2022/09/19 12:57:50;;;;;;;;;;;22.40;52.70;;;;;;4997777;28;19917;-73
2022/09/19 13:00:18;;;;;;;;;;;22.40;52.90;;;;;;5016781;28;19925;-73
2022/09/19 13:02:48;;;;;;;;;;;22.30;52.90;;;;;;5015956;28;19921;-75
2022/09/19 13:05:33;;;;;;;;;;;22.30;53.10;;;;;;5011858;28;19921;-75
2022/09/19 13:08:00;;;;;;;;;;;22.20;53.20;;;;;;5014485;28;19917;-74
2022/09/19 13:10:38;;;;;;;;;;;22.10;53.40;;;;;;5009451;28;19929;-75
2022/09/19 13:13:10;;;;;;;;;;;22.00;53.50;;;;;;5010392;28;19914;-73
2022/09/19 13:15:45;;;;;;;;;;;21.90;53.90;;;;;;5012943;28;19919;-74
2022/09/19 13:23:43;;;;;;;;;;;21.70;54.60;;;;;;5008993;28;20733;-74
2022/09/19 13:26:11;;;;;;;;;;;21.60;54.70;;;;;;5011138;28;20444;-73
2022/09/19 13:28:44;;;;;;;;;;;21.60;54.70;;;;;;5012978;28;19944;-74
2022/09/19 13:31:12;;;;;;;;;;;21.60;54.80;;;;;;5011552;28;19917;-74
2022/09/19 13:33:50;;;;;;;;;;;21.50;54.90;;;;;;5004854;28;19941;-73
2022/09/19 13:36:16;;;;;;;;;;;21.50;55.10;;;;;;5012185;28;19935;-73
2022/09/19 13:38:43;;;;;;;;;;;21.40;55.20;;;;;;5012015;28;20432;-73
2022/09/19 13:41:10;;;;;;;;;;;21.30;55.30;;;;;;5006512;28;20393;-73
2022/09/19 13:43:48;;;;;;;;;;;21.30;55.40;;;;;;5011101;28;20361;-74
2022/09/19 13:46:25;;;;;;;;;;;21.30;55.50;;;;;;5011509;28;20415;-73
2022/09/19 13:48:52;;;;;;;;;;;21.20;55.60;;;;;;5010009;28;19956;-75
2022/09/19 13:51:20;;;;;;;;;;;21.20;55.70;;;;;;5008356;28;19932;-73
2022/09/19 13:53:45;;;;;;;;;;;21.20;56.00;;;;;;5011113;28;20436;-72
2022/09/19 13:56:24;;;;;;;;;;;21.10;55.90;;;;;;5012487;28;20003;-73
2022/09/19 13:59:12;;;;;;;;;;;21.10;55.90;;;;;;5010806;28;19940;-72
2022/09/19 14:01:39;;;;;;;;;;;21.10;55.90;;;;;;5002143;28;19928;-73
2022/09/19 14:07:00;;;;;;;;;;;21.10;55.90;;;;;;4996685;28;20372;-73
2022/09/19 14:09:32;;;;;;;;;;;21.10;55.90;;;;;;5012081;28;20011;-73
2022/09/19 14:11:58;;;;;;;;;;;21.00;55.90;;;;;;5011227;28;20332;-72
2022/09/19 14:14:47;;;;;;;;;;;21.10;56.10;;;;;;5010721;28;19920;-72
2022/09/19 14:17:13;;;;;;;;;;;21.10;56.10;;;;;;5015989;28;19959;-72
2022/09/19 14:19:43;;;;;;;;;;;21.10;56.10;;;;;;5006109;28;20448;-72
2022/09/19 14:22:27;;;;;;;;;;;21.10;56.10;;;;;;5004914;28;19917;-72
2022/09/19 14:24:54;;;;;;;;;;;21.10;56.10;;;;;;5008551;28;19921;-72
2022/09/19 14:27:25;;;;;;;;;;;21.10;56.40;;;;;;5010004;28;19960;-73
2022/09/19 14:29:59;;;;;;;;;;;21.10;56.40;;;;;;5010831;28;19921;-73
2022/09/19 14:32:32;;;;;;;;;;;21.10;56.50;;;;;;5004300;28;19968;-73
2022/09/19 14:35:05;;;;;;;;;;;21.00;56.60;;;;;;5005908;28;19921;-72
2022/09/19 14:37:37;;;;;;;;;;;21.00;56.70;;;;;;5010143;28;20012;-72
2022/09/19 14:40:14;;;;;;;;;;;21.00;56.60;;;;;;5011787;28;19910;-72
2022/09/19 14:42:51;;;;;;;;;;;21.00;56.70;;;;;;5019066;28;19919;-72
2022/09/19 14:45:17;;;;;;;;;;;21.00;56.80;;;;;;5011594;28;19917;-73
2022/09/19 14:47:43;;;;;;;;;;;21.00;56.80;;;;;;5011610;28;20350;-72
2022/09/19 14:50:19;;;;;;;;;;;21.00;56.80;;;;;;5005351;28;20392;-70
2022/09/19 14:52:44;;;;;;;;;;;20.90;56.70;;;;;;5002158;28;20512;-70
2022/09/19 14:55:13;;;;;;;;;;;21.00;56.80;;;;;;5010300;28;19913;-73